sensor_id;sensor_type;location;lat;lon;timestamp;temperature;humidity
52769;DHT22;40471;44.534;18.644;2023-05-27T04:02:41;17.30;99.90
52769;DHT22;40471;44.534;18.644;2023-05-27T04:08:29;17.30;99.90
52769;DHT22;40471;44.534;18.644;2023-05-27T04:10:55;17.30;99.90
52769;DHT22;40471;44.534;18.644;2023-05-27T04:13:21;17.40;99.90
52769;DHT22;40471;44.534;18.644;2023-05-27T04:15:47;17.50;99.90
52769;DHT22;40471;44.534;18.644;2023-05-27T04:18:14;17.50;99.90
52769;DHT22;40471;44.534;18.644;2023-05-27T04:20:41;17.50;99.90
52769;DHT22;40471;44.534;18.644;2023-05-27T04:23:09;17.60;99.90
52769;DHT22;40471;44.534;18.644;2023-05-27T04:25:35;17.60;99.90
52769;DHT22;40471;44.534;18.644;2023-05-27T04:28:02;17.70;99.90
52769;DHT22;40471;44.534;18.644;2023-05-27T04:30:31;17.70;99.90
52769;DHT22;40471;44.534;18.644;2023-05-27T04:32:57;17.80;99.90
52769;DHT22;40471;44.534;18.644;2023-05-27T04:35:23;17.80;99.90
52769;DHT22;40471;44.534;18.644;2023-05-27T04:37:49;17.90;99.90
52769;DHT22;40471;44.534;18.644;2023-05-27T04:40:15;17.90;99.90
52769;DHT22;40471;44.534;18.644;2023-05-27T04:42:41;18.00;99.90
52769;DHT22;40471;44.534;18.644;2023-05-27T04:45:09;18.00;99.90
52769;DHT22;40471;44.534;18.644;2023-05-27T04:47:37;18.10;99.90
52769;DHT22;40471;44.534;18.644;2023-05-27T04:50:06;18.10;99.90
52769;DHT22;40471;44.534;18.644;2023-05-27T04:52:33;18.10;99.90
52769;DHT22;40471;44.534;18.644;2023-05-27T04:55:05;18.00;99.90
52769;DHT22;40471;44.534;18.644;2023-05-27T04:57:31;18.00;99.90
52769;DHT22;40471;44.534;18.644;2023-05-27T04:59:58;18.00;99.90
52769;DHT22;40471;44.534;18.644;2023-05-27T05:02:27;18.10;99.90
52769;DHT22;40471;44.534;18.644;2023-05-27T05:05:04;18.20;99.90
52769;DHT22;40471;44.534;18.644;2023-05-27T05:07:31;18.10;99.90
52769;DHT22;40471;44.534;18.644;2023-05-27T05:09:57;18.30;99.90
52769;DHT22;40471;44.534;18.644;2023-05-27T05:12:23;18.30;99.90
52769;DHT22;40471;44.534;18.644;2023-05-27T05:14:50;18.40;99.90
52769;DHT22;40471;44.534;18.644;2023-05-27T05:17:16;18.30;99.90
52769;DHT22;40471;44.534;18.644;2023-05-27T05:19:44;18.40;99.90
52769;DHT22;40471;44.534;18.644;2023-05-27T05:22:10;18.40;99.90
52769;DHT22;40471;44.534;18.644;2023-05-27T05:24:38;18.40;99.90
52769;DHT22;40471;44.534;18.644;2023-05-27T05:27:04;18.40;99.90
52769;DHT22;40471;44.534;18.644;2023-05-27T05:29:32;18.50;99.90
52769;DHT22;40471;44.534;18.644;2023-05-27T05:31:58;18.60;99.90
52769;DHT22;40471;44.534;18.644;2023-05-27T05:34:24;18.60;99.90
52769;DHT22;40471;44.534;18.644;2023-05-27T05:36:49;18.60;99.90
52769;DHT22;40471;44.534;18.644;2023-05-27T05:39:15;18.60;99.90
52769;DHT22;40471;44.534;18.644;2023-05-27T05:41:41;18.70;99.90
52769;DHT22;40471;44.534;18.644;2023-05-27T05:44:07;18.70;99.90
52769;DHT22;40471;44.534;18.644;2023-05-27T05:46:33;18.80;99.90
52769;DHT22;40471;44.534;18.644;2023-05-27T05:48:58;18.80;99.90
52769;DHT22;40471;44.534;18.644;2023-05-27T05:51:24;18.90;99.90
52769;DHT22;40471;44.534;18.644;2023-05-27T05:53:50;18.90;99.90
52769;DHT22;40471;44.534;18.644;2023-05-27T05:56:16;19.00;99.90
52769;DHT22;40471;44.534;18.644;2023-05-27T05:58:41;19.00;99.90
52769;DHT22;40471;44.534;18.644;2023-05-27T06:01:07;19.10;99.90
52769;DHT22;40471;44.534;18.644;2023-05-27T06:03:33;19.20;99.90
52769;DHT22;40471;44.534;18.644;2023-05-27T06:05:58;19.30;99.90
52769;DHT22;40471;44.534;18.644;2023-05-27T06:08:26;19.40;99.90
52769;DHT22;40471;44.534;18.644;2023-05-27T06:10:52;19.40;99.90
52769;DHT22;40471;44.534;18.644;2023-05-27T06:13:18;19.40;99.90
52769;DHT22;40471;44.534;18.644;2023-05-27T06:15:43;19.40;99.90
52769;DHT22;40471;44.534;18.644;2023-05-27T06:18:09;19.50;99.90
52769;DHT22;40471;44.534;18.644;2023-05-27T06:20:35;19.70;99.90
52769;DHT22;40471;44.534;18.644;2023-05-27T06:23:01;19.90;99.90
52769;DHT22;40471;44.534;18.644;2023-05-27T06:25:28;20.00;99.90
52769;DHT22;40471;44.534;18.644;2023-05-27T06:27:53;20.10;99.90
52769;DHT22;40471;44.534;18.644;2023-05-27T06:30:19;20.00;99.90
52769;DHT22;40471;44.534;18.644;2023-05-27T06:32:45;20.00;99.90
52769;DHT22;40471;44.534;18.644;2023-05-27T06:35:11;19.90;99.90
52769;DHT22;40471;44.534;18.644;2023-05-27T06:37:37;19.60;99.90
52769;DHT22;40471;44.534;18.644;2023-05-27T06:40:02;19.50;99.90
52769;DHT22;40471;44.534;18.644;2023-05-27T06:42:28;19.50;99.90
52769;DHT22;40471;44.534;18.644;2023-05-27T06:44:54;19.30;99.90
52769;DHT22;40471;44.534;18.644;2023-05-27T06:47:20;19.40;99.90
52769;DHT22;40471;44.534;18.644;2023-05-27T06:49:46;19.40;99.90
52769;DHT22;40471;44.534;18.644;2023-05-27T06:52:11;19.40;99.90
52769;DHT22;40471;44.534;18.644;2023-05-27T06:54:37;19.50;99.90
52769;DHT22;40471;44.534;18.644;2023-05-27T06:57:03;19.60;99.90
52769;DHT22;40471;44.534;18.644;2023-05-27T06:59:29;19.60;99.90
52769;DHT22;40471;44.534;18.644;2023-05-27T07:01:55;19.60;99.90
52769;DHT22;40471;44.534;18.644;2023-05-27T07:04:24;19.50;99.90
52769;DHT22;40471;44.534;18.644;2023-05-27T07:06:50;19.40;99.90
52769;DHT22;40471;44.534;18.644;2023-05-27T07:09:16;19.20;99.90
52769;DHT22;40471;44.534;18.644;2023-05-27T07:11:42;19.20;99.90
52769;DHT22;40471;44.534;18.644;2023-05-27T07:14:08;19.10;99.90
52769;DHT22;40471;44.534;18.644;2023-05-27T07:16:37;19.10;99.90
52769;DHT22;40471;44.534;18.644;2023-05-27T07:19:02;19.00;99.90
52769;DHT22;40471;44.534;18.644;2023-05-27T07:21:28;19.00;99.90
52769;DHT22;40471;44.534;18.644;2023-05-27T07:23:54;19.20;99.90
52769;DHT22;40471;44.534;18.644;2023-05-27T07:26:24;19.30;99.90
52769;DHT22;40471;44.534;18.644;2023-05-27T07:28:51;19.50;99.90
52769;DHT22;40471;44.534;18.644;2023-05-27T07:31:17;19.70;99.90
52769;DHT22;40471;44.534;18.644;2023-05-27T07:33:43;20.00;99.90
52769;DHT22;40471;44.534;18.644;2023-05-27T07:36:09;20.30;99.90
52769;DHT22;40471;44.534;18.644;2023-05-27T07:38:35;20.40;99.90
52769;DHT22;40471;44.534;18.644;2023-05-27T07:41:01;20.50;99.90
52769;DHT22;40471;44.534;18.644;2023-05-27T07:43:27;20.40;99.90
52769;DHT22;40471;44.534;18.644;2023-05-27T07:45:52;20.40;99.90
52769;DHT22;40471;44.534;18.644;2023-05-27T07:48:18;20.40;99.90
52769;DHT22;40471;44.534;18.644;2023-05-27T07:50:44;20.40;99.90
52769;DHT22;40471;44.534;18.644;2023-05-27T07:53:09;20.40;99.90
52769;DHT22;40471;44.534;18.644;2023-05-27T07:55:35;20.20;99.90
52769;DHT22;40471;44.534;18.644;2023-05-27T07:58:01;20.20;99.90
52769;DHT22;40471;44.534;18.644;2023-05-27T08:00:26;20.20;99.90
52769;DHT22;40471;44.534;18.644;2023-05-27T08:02:53;19.80;99.90
52769;DHT22;40471;44.534;18.644;2023-05-27T08:05:18;19.60;99.90
52769;DHT22;40471;44.534;18.644;2023-05-27T08:07:44;19.60;99.90
52769;DHT22;40471;44.534;18.644;2023-05-27T08:10:10;19.60;99.90
52769;DHT22;40471;44.534;18.644;2023-05-27T08:12:37;19.60;99.90
52769;DHT22;40471;44.534;18.644;2023-05-27T08:15:03;19.70;99.90
52769;DHT22;40471;44.534;18.644;2023-05-27T08:17:28;19.70;99.90
52769;DHT22;40471;44.534;18.644;2023-05-27T08:19:54;19.80;99.90
52769;DHT22;40471;44.534;18.644;2023-05-27T08:22:20;19.90;99.90
52769;DHT22;40471;44.534;18.644;2023-05-27T08:24:46;20.20;99.90
52769;DHT22;40471;44.534;18.644;2023-05-27T08:27:16;20.50;99.90
52769;DHT22;40471;44.534;18.644;2023-05-27T08:29:42;20.80;99.90
52769;DHT22;40471;44.534;18.644;2023-05-27T08:32:09;20.80;99.90
52769;DHT22;40471;44.534;18.644;2023-05-27T08:34:35;21.00;99.90
52769;DHT22;40471;44.534;18.644;2023-05-27T08:37:01;21.20;99.90
52769;DHT22;40471;44.534;18.644;2023-05-27T08:39:29;21.10;99.90
52769;DHT22;40471;44.534;18.644;2023-05-27T08:41:55;21.30;99.90
52769;DHT22;40471;44.534;18.644;2023-05-27T08:44:21;21.10;99.90
52769;DHT22;40471;44.534;18.644;2023-05-27T08:46:48;21.10;99.90
52769;DHT22;40471;44.534;18.644;2023-05-27T08:49:15;21.20;99.90
52769;DHT22;40471;44.534;18.644;2023-05-27T08:51:41;21.30;99.90
52769;DHT22;40471;44.534;18.644;2023-05-27T08:54:10;21.30;99.90
52769;DHT22;40471;44.534;18.644;2023-05-27T08:56:37;21.30;99.90
52769;DHT22;40471;44.534;18.644;2023-05-27T08:59:05;21.50;99.90
52769;DHT22;40471;44.534;18.644;2023-05-27T09:01:31;21.80;99.90
52769;DHT22;40471;44.534;18.644;2023-05-27T09:03:58;22.10;99.90
52769;DHT22;40471;44.534;18.644;2023-05-27T09:06:24;22.30;99.90
52769;DHT22;40471;44.534;18.644;2023-05-27T09:08:50;22.60;99.90
52769;DHT22;40471;44.534;18.644;2023-05-27T09:11:22;22.70;99.90
52769;DHT22;40471;44.534;18.644;2023-05-27T09:13:48;22.60;99.90
52769;DHT22;40471;44.534;18.644;2023-05-27T09:16:14;22.70;99.90
52769;DHT22;40471;44.534;18.644;2023-05-27T09:18:42;22.20;99.90
52769;DHT22;40471;44.534;18.644;2023-05-27T09:21:08;22.20;99.90
52769;DHT22;40471;44.534;18.644;2023-05-27T09:23:39;22.30;99.90
52769;DHT22;40471;44.534;18.644;2023-05-27T09:26:12;22.30;99.90
52769;DHT22;40471;44.534;18.644;2023-05-27T09:28:38;22.30;99.90
52769;DHT22;40471;44.534;18.644;2023-05-27T09:31:07;22.20;99.90
52769;DHT22;40471;44.534;18.644;2023-05-27T09:33:35;22.20;99.90
52769;DHT22;40471;44.534;18.644;2023-05-27T09:36:03;22.10;99.90
52769;DHT22;40471;44.534;18.644;2023-05-27T09:38:33;22.10;99.90
52769;DHT22;40471;44.534;18.644;2023-05-27T09:41:00;22.10;99.90
52769;DHT22;40471;44.534;18.644;2023-05-27T09:43:26;22.20;99.90
52769;DHT22;40471;44.534;18.644;2023-05-27T09:46:00;22.20;99.90
52769;DHT22;40471;44.534;18.644;2023-05-27T09:48:30;22.30;99.90
52769;DHT22;40471;44.534;18.644;2023-05-27T09:50:57;22.30;99.90
52769;DHT22;40471;44.534;18.644;2023-05-27T09:53:24;22.20;99.90
52769;DHT22;40471;44.534;18.644;2023-05-27T09:55:53;22.30;99.90
52769;DHT22;40471;44.534;18.644;2023-05-27T09:58:23;22.30;99.90
52769;DHT22;40471;44.534;18.644;2023-05-27T10:00:49;22.60;99.90
52769;DHT22;40471;44.534;18.644;2023-05-27T10:03:22;23.10;99.90
52769;DHT22;40471;44.534;18.644;2023-05-27T10:05:50;23.90;99.90
52769;DHT22;40471;44.534;18.644;2023-05-27T10:08:18;24.30;99.90
52769;DHT22;40471;44.534;18.644;2023-05-27T10:10:45;24.30;99.90
52769;DHT22;40471;44.534;18.644;2023-05-27T10:13:13;24.40;99.90
52769;DHT22;40471;44.534;18.644;2023-05-27T10:15:46;24.40;99.90
52769;DHT22;40471;44.534;18.644;2023-05-27T10:18:25;24.30;99.90
52769;DHT22;40471;44.534;18.644;2023-05-27T10:20:51;24.20;99.90
52769;DHT22;40471;44.534;18.644;2023-05-27T10:23:24;24.20;99.90
52769;DHT22;40471;44.534;18.644;2023-05-27T10:26:06;24.20;99.90
52769;DHT22;40471;44.534;18.644;2023-05-27T10:28:33;24.30;99.90
52769;DHT22;40471;44.534;18.644;2023-05-27T10:31:08;24.30;99.90
52769;DHT22;40471;44.534;18.644;2023-05-27T10:33:38;24.30;99.90
52769;DHT22;40471;44.534;18.644;2023-05-27T10:38:37;24.40;99.90
52769;DHT22;40471;44.534;18.644;2023-05-27T10:41:05;24.50;99.90
52769;DHT22;40471;44.534;18.644;2023-05-27T10:43:32;24.70;99.90
52769;DHT22;40471;44.534;18.644;2023-05-27T10:46:08;24.70;99.90
52769;DHT22;40471;44.534;18.644;2023-05-27T10:49:13;24.70;99.90
52769;DHT22;40471;44.534;18.644;2023-05-27T10:51:41;24.60;99.90
52769;DHT22;40471;44.534;18.644;2023-05-27T10:54:07;24.70;99.90
52769;DHT22;40471;44.534;18.644;2023-05-27T10:56:34;24.70;99.90
52769;DHT22;40471;44.534;18.644;2023-05-27T10:59:00;24.70;99.90
52769;DHT22;40471;44.534;18.644;2023-05-27T11:01:28;24.60;99.90
52769;DHT22;40471;44.534;18.644;2023-05-27T11:03:58;24.40;99.90
52769;DHT22;40471;44.534;18.644;2023-05-27T11:06:23;24.10;99.90
52769;DHT22;40471;44.534;18.644;2023-05-27T11:08:49;23.80;99.90
52769;DHT22;40471;44.534;18.644;2023-05-27T11:11:16;23.70;99.90
52769;DHT22;40471;44.534;18.644;2023-05-27T11:13:43;23.70;99.90
52769;DHT22;40471;44.534;18.644;2023-05-27T11:16:09;23.60;99.90
52769;DHT22;40471;44.534;18.644;2023-05-27T11:21:08;23.70;99.90
52769;DHT22;40471;44.534;18.644;2023-05-27T11:23:37;23.90;99.90
52769;DHT22;40471;44.534;18.644;2023-05-27T11:26:13;24.20;99.90
52769;DHT22;40471;44.534;18.644;2023-05-27T11:31:18;24.90;99.90
52769;DHT22;40471;44.534;18.644;2023-05-27T11:33:46;24.90;99.90
52769;DHT22;40471;44.534;18.644;2023-05-27T11:36:14;24.70;99.90
52769;DHT22;40471;44.534;18.644;2023-05-27T11:38:47;24.80;99.90
52769;DHT22;40471;44.534;18.644;2023-05-27T11:41:13;25.20;99.90
52769;DHT22;40471;44.534;18.644;2023-05-27T11:43:48;26.10;99.90
52769;DHT22;40471;44.534;18.644;2023-05-27T11:46:15;26.10;99.90
52769;DHT22;40471;44.534;18.644;2023-05-27T11:48:41;26.30;99.90
52769;DHT22;40471;44.534;18.644;2023-05-27T11:51:07;26.40;99.90
52769;DHT22;40471;44.534;18.644;2023-05-27T11:53:38;27.10;99.90
52769;DHT22;40471;44.534;18.644;2023-05-27T11:56:04;27.20;99.90
52769;DHT22;40471;44.534;18.644;2023-05-27T11:58:30;26.90;99.90
52769;DHT22;40471;44.534;18.644;2023-05-27T12:00:55;26.80;99.90
52769;DHT22;40471;44.534;18.644;2023-05-27T12:03:21;26.60;99.90
52769;DHT22;40471;44.534;18.644;2023-05-27T12:05:47;26.50;99.90
52769;DHT22;40471;44.534;18.644;2023-05-27T12:08:13;26.00;99.90
52769;DHT22;40471;44.534;18.644;2023-05-27T12:10:38;25.80;99.90
52769;DHT22;40471;44.534;18.644;2023-05-27T12:13:05;25.60;99.90
52769;DHT22;40471;44.534;18.644;2023-05-27T12:15:31;25.60;99.90
52769;DHT22;40471;44.534;18.644;2023-05-27T12:17:57;25.70;99.90
52769;DHT22;40471;44.534;18.644;2023-05-27T12:20:23;26.20;99.90
52769;DHT22;40471;44.534;18.644;2023-05-27T12:22:55;26.50;99.90
52769;DHT22;40471;44.534;18.644;2023-05-27T12:25:21;26.60;99.90
52769;DHT22;40471;44.534;18.644;2023-05-27T12:27:47;26.80;99.90
52769;DHT22;40471;44.534;18.644;2023-05-27T12:30:12;27.30;99.90
52769;DHT22;40471;44.534;18.644;2023-05-27T12:32:39;27.50;99.90
52769;DHT22;40471;44.534;18.644;2023-05-27T12:35:05;27.60;99.90
52769;DHT22;40471;44.534;18.644;2023-05-27T12:37:32;27.00;99.90
52769;DHT22;40471;44.534;18.644;2023-05-27T12:39:57;26.70;99.90
52769;DHT22;40471;44.534;18.644;2023-05-27T12:42:23;27.00;99.90
52769;DHT22;40471;44.534;18.644;2023-05-27T12:44:49;27.20;99.90
52769;DHT22;40471;44.534;18.644;2023-05-27T12:47:14;27.10;99.90
52769;DHT22;40471;44.534;18.644;2023-05-27T12:49:40;27.50;99.90
52769;DHT22;40471;44.534;18.644;2023-05-27T12:52:08;27.80;99.90
52769;DHT22;40471;44.534;18.644;2023-05-27T12:54:33;27.90;99.90
52769;DHT22;40471;44.534;18.644;2023-05-27T12:57:00;27.60;99.90
52769;DHT22;40471;44.534;18.644;2023-05-27T12:59:27;27.20;99.90
52769;DHT22;40471;44.534;18.644;2023-05-27T13:01:53;26.90;99.90
52769;DHT22;40471;44.534;18.644;2023-05-27T13:04:19;26.60;99.90
52769;DHT22;40471;44.534;18.644;2023-05-27T13:06:45;26.30;99.90
52769;DHT22;40471;44.534;18.644;2023-05-27T13:09:11;26.10;99.90
52769;DHT22;40471;44.534;18.644;2023-05-27T13:11:38;26.10;99.90
52769;DHT22;40471;44.534;18.644;2023-05-27T13:14:04;26.00;99.90
52769;DHT22;40471;44.534;18.644;2023-05-27T13:16:30;26.00;99.90
52769;DHT22;40471;44.534;18.644;2023-05-27T13:18:56;26.10;99.90
52769;DHT22;40471;44.534;18.644;2023-05-27T13:21:22;26.20;99.90
52769;DHT22;40471;44.534;18.644;2023-05-27T13:23:47;26.10;99.90
52769;DHT22;40471;44.534;18.644;2023-05-27T13:26:13;26.20;99.90
52769;DHT22;40471;44.534;18.644;2023-05-27T13:28:39;26.40;99.90
52769;DHT22;40471;44.534;18.644;2023-05-27T13:31:05;26.50;99.90
52769;DHT22;40471;44.534;18.644;2023-05-27T13:33:31;26.40;99.90
52769;DHT22;40471;44.534;18.644;2023-05-27T13:35:57;26.50;99.90
52769;DHT22;40471;44.534;18.644;2023-05-27T13:38:22;26.30;99.90
52769;DHT22;40471;44.534;18.644;2023-05-27T13:40:48;26.10;99.90
52769;DHT22;40471;44.534;18.644;2023-05-27T13:43:16;25.80;99.90
52769;DHT22;40471;44.534;18.644;2023-05-27T13:45:43;25.60;99.90
52769;DHT22;40471;44.534;18.644;2023-05-27T13:48:08;25.50;99.90
52769;DHT22;40471;44.534;18.644;2023-05-27T13:50:34;25.60;99.90
52769;DHT22;40471;44.534;18.644;2023-05-27T13:53:00;25.50;99.90
52769;DHT22;40471;44.534;18.644;2023-05-27T13:55:26;25.40;99.90
52769;DHT22;40471;44.534;18.644;2023-05-27T13:57:52;25.30;99.90
52769;DHT22;40471;44.534;18.644;2023-05-27T14:00:18;25.00;99.90
52769;DHT22;40471;44.534;18.644;2023-05-27T14:02:44;25.00;99.90
52769;DHT22;40471;44.534;18.644;2023-05-27T14:05:10;24.90;99.90
52769;DHT22;40471;44.534;18.644;2023-05-27T14:07:42;24.80;99.90
52769;DHT22;40471;44.534;18.644;2023-05-27T14:10:10;24.50;99.90
52769;DHT22;40471;44.534;18.644;2023-05-27T14:12:36;24.20;99.90
52769;DHT22;40471;44.534;18.644;2023-05-27T14:15:02;23.70;99.90
52769;DHT22;40471;44.534;18.644;2023-05-27T14:17:28;23.20;99.90
52769;DHT22;40471;44.534;18.644;2023-05-27T14:19:54;22.60;99.90
52769;DHT22;40471;44.534;18.644;2023-05-27T14:22:19;22.00;99.90
52769;DHT22;40471;44.534;18.644;2023-05-27T14:24:45;21.80;99.90
52769;DHT22;40471;44.534;18.644;2023-05-27T14:27:11;21.70;99.90
52769;DHT22;40471;44.534;18.644;2023-05-27T14:29:37;21.60;99.90
52769;DHT22;40471;44.534;18.644;2023-05-27T14:32:03;21.40;99.90
52769;DHT22;40471;44.534;18.644;2023-05-27T14:34:29;21.40;99.90
52769;DHT22;40471;44.534;18.644;2023-05-27T14:36:54;21.40;99.90
52769;DHT22;40471;44.534;18.644;2023-05-27T14:39:20;21.50;99.90
52769;DHT22;40471;44.534;18.644;2023-05-27T14:41:46;21.50;99.90
52769;DHT22;40471;44.534;18.644;2023-05-27T14:44:12;21.60;99.90
52769;DHT22;40471;44.534;18.644;2023-05-27T14:46:38;21.60;99.90
52769;DHT22;40471;44.534;18.644;2023-05-27T14:49:04;21.60;99.90
52769;DHT22;40471;44.534;18.644;2023-05-27T14:51:30;21.70;99.90
52769;DHT22;40471;44.534;18.644;2023-05-27T14:53:56;21.70;99.90
52769;DHT22;40471;44.534;18.644;2023-05-27T14:56:21;21.70;99.90
52769;DHT22;40471;44.534;18.644;2023-05-27T14:58:47;21.90;99.90
52769;DHT22;40471;44.534;18.644;2023-05-27T15:01:14;21.90;99.90
52769;DHT22;40471;44.534;18.644;2023-05-27T15:03:40;22.00;99.90
52769;DHT22;40471;44.534;18.644;2023-05-27T15:06:06;22.10;99.90
52769;DHT22;40471;44.534;18.644;2023-05-27T15:08:34;22.20;99.90
52769;DHT22;40471;44.534;18.644;2023-05-27T15:11:01;22.10;99.90
52769;DHT22;40471;44.534;18.644;2023-05-27T15:13:27;22.10;99.90
52769;DHT22;40471;44.534;18.644;2023-05-27T15:15:53;22.00;99.90
52769;DHT22;40471;44.534;18.644;2023-05-27T15:18:19;22.00;99.90
52769;DHT22;40471;44.534;18.644;2023-05-27T15:20:45;22.00;99.90
52769;DHT22;40471;44.534;18.644;2023-05-27T15:23:11;22.10;99.90
52769;DHT22;40471;44.534;18.644;2023-05-27T15:25:37;22.20;99.90
52769;DHT22;40471;44.534;18.644;2023-05-27T15:28:03;22.40;99.90
52769;DHT22;40471;44.534;18.644;2023-05-27T15:30:29;22.50;99.90
52769;DHT22;40471;44.534;18.644;2023-05-27T15:32:55;22.80;99.90
52769;DHT22;40471;44.534;18.644;2023-05-27T15:35:21;22.70;99.90
52769;DHT22;40471;44.534;18.644;2023-05-27T15:37:46;22.70;99.90
52769;DHT22;40471;44.534;18.644;2023-05-27T15:40:13;22.80;99.90
52769;DHT22;40471;44.534;18.644;2023-05-27T15:42:38;22.80;99.90
52769;DHT22;40471;44.534;18.644;2023-05-27T15:45:05;23.00;99.90
52769;DHT22;40471;44.534;18.644;2023-05-27T15:47:31;23.10;99.90
52769;DHT22;40471;44.534;18.644;2023-05-27T15:49:57;23.30;99.90
52769;DHT22;40471;44.534;18.644;2023-05-27T15:52:23;23.30;99.90
52769;DHT22;40471;44.534;18.644;2023-05-27T15:54:49;23.30;99.90
52769;DHT22;40471;44.534;18.644;2023-05-27T15:57:15;23.40;99.90
52769;DHT22;40471;44.534;18.644;2023-05-27T15:59:41;23.40;99.90
52769;DHT22;40471;44.534;18.644;2023-05-27T16:02:10;23.60;99.90
52769;DHT22;40471;44.534;18.644;2023-05-27T16:04:36;23.70;99.90
52769;DHT22;40471;44.534;18.644;2023-05-27T16:07:02;23.80;99.90
52769;DHT22;40471;44.534;18.644;2023-05-27T16:09:28;23.90;99.90
52769;DHT22;40471;44.534;18.644;2023-05-27T16:11:54;23.90;99.90
52769;DHT22;40471;44.534;18.644;2023-05-27T16:14:20;23.80;99.90
52769;DHT22;40471;44.534;18.644;2023-05-27T16:16:46;23.80;99.90
52769;DHT22;40471;44.534;18.644;2023-05-27T16:19:12;23.80;99.90
52769;DHT22;40471;44.534;18.644;2023-05-27T16:21:39;24.00;99.90
52769;DHT22;40471;44.534;18.644;2023-05-27T16:24:05;24.00;99.90
52769;DHT22;40471;44.534;18.644;2023-05-27T16:26:31;24.10;99.90
52769;DHT22;40471;44.534;18.644;2023-05-27T16:28:56;24.30;99.90
52769;DHT22;40471;44.534;18.644;2023-05-27T16:31:22;24.30;99.90
52769;DHT22;40471;44.534;18.644;2023-05-27T16:33:48;24.20;99.90
52769;DHT22;40471;44.534;18.644;2023-05-27T16:36:14;24.10;99.90
52769;DHT22;40471;44.534;18.644;2023-05-27T16:38:40;24.00;99.90
52769;DHT22;40471;44.534;18.644;2023-05-27T16:41:06;24.00;99.90
52769;DHT22;40471;44.534;18.644;2023-05-27T16:43:32;23.80;99.90
52769;DHT22;40471;44.534;18.644;2023-05-27T16:45:57;23.60;99.90
52769;DHT22;40471;44.534;18.644;2023-05-27T16:48:23;23.40;99.90
52769;DHT22;40471;44.534;18.644;2023-05-27T16:50:49;23.30;99.90
52769;DHT22;40471;44.534;18.644;2023-05-27T16:53:15;23.20;99.90
52769;DHT22;40471;44.534;18.644;2023-05-27T16:55:41;23.10;99.90
52769;DHT22;40471;44.534;18.644;2023-05-27T16:58:06;23.00;99.90
52769;DHT22;40471;44.534;18.644;2023-05-27T17:00:32;23.00;99.90
52769;DHT22;40471;44.534;18.644;2023-05-27T17:02:58;22.90;99.90
52769;DHT22;40471;44.534;18.644;2023-05-27T17:05:24;22.80;99.90
52769;DHT22;40471;44.534;18.644;2023-05-27T17:07:50;22.80;99.90
52769;DHT22;40471;44.534;18.644;2023-05-27T17:10:15;22.70;99.90
52769;DHT22;40471;44.534;18.644;2023-05-27T17:12:41;22.60;99.90
52769;DHT22;40471;44.534;18.644;2023-05-27T17:15:09;22.50;99.90
52769;DHT22;40471;44.534;18.644;2023-05-27T17:17:35;22.40;99.90
52769;DHT22;40471;44.534;18.644;2023-05-27T17:20:00;22.40;99.90
52769;DHT22;40471;44.534;18.644;2023-05-27T17:22:26;22.30;99.90
52769;DHT22;40471;44.534;18.644;2023-05-27T17:24:52;22.30;99.90
52769;DHT22;40471;44.534;18.644;2023-05-27T17:27:18;22.20;99.90
52769;DHT22;40471;44.534;18.644;2023-05-27T17:29:45;22.20;99.90
52769;DHT22;40471;44.534;18.644;2023-05-27T17:32:13;22.20;99.90
52769;DHT22;40471;44.534;18.644;2023-05-27T17:34:39;22.20;99.90
52769;DHT22;40471;44.534;18.644;2023-05-27T17:37:05;22.10;99.90
52769;DHT22;40471;44.534;18.644;2023-05-27T17:39:30;22.10;99.90
52769;DHT22;40471;44.534;18.644;2023-05-27T17:41:56;22.10;99.90
52769;DHT22;40471;44.534;18.644;2023-05-27T17:44:22;22.00;99.90
52769;DHT22;40471;44.534;18.644;2023-05-27T17:46:48;21.90;99.90
52769;DHT22;40471;44.534;18.644;2023-05-27T17:49:14;21.90;99.90
52769;DHT22;40471;44.534;18.644;2023-05-27T17:51:40;21.90;99.90
52769;DHT22;40471;44.534;18.644;2023-05-27T17:54:05;21.80;99.90
52769;DHT22;40471;44.534;18.644;2023-05-27T17:56:31;21.70;99.90
52769;DHT22;40471;44.534;18.644;2023-05-27T17:58:58;21.70;99.90
52769;DHT22;40471;44.534;18.644;2023-05-27T18:01:23;21.50;99.90
52769;DHT22;40471;44.534;18.644;2023-05-27T18:03:49;21.40;99.90
52769;DHT22;40471;44.534;18.644;2023-05-27T18:06:15;21.30;99.90
52769;DHT22;40471;44.534;18.644;2023-05-27T18:08:41;21.30;99.90
52769;DHT22;40471;44.534;18.644;2023-05-27T18:11:07;21.30;99.90
52769;DHT22;40471;44.534;18.644;2023-05-27T18:13:33;21.30;99.90
52769;DHT22;40471;44.534;18.644;2023-05-27T18:15:59;21.30;99.90
52769;DHT22;40471;44.534;18.644;2023-05-27T18:18:25;21.20;99.90
52769;DHT22;40471;44.534;18.644;2023-05-27T18:20:51;21.10;99.90
52769;DHT22;40471;44.534;18.644;2023-05-27T18:23:18;21.00;99.90
52769;DHT22;40471;44.534;18.644;2023-05-27T18:25:44;21.00;99.90
52769;DHT22;40471;44.534;18.644;2023-05-27T18:28:10;20.90;99.90
52769;DHT22;40471;44.534;18.644;2023-05-27T18:30:35;20.80;99.90
52769;DHT22;40471;44.534;18.644;2023-05-27T18:33:05;20.50;99.90
52769;DHT22;40471;44.534;18.644;2023-05-27T18:35:31;20.30;99.90
52769;DHT22;40471;44.534;18.644;2023-05-27T18:37:57;20.30;99.90
52769;DHT22;40471;44.534;18.644;2023-05-27T18:40:23;20.20;99.90
52769;DHT22;40471;44.534;18.644;2023-05-27T18:42:50;20.20;99.90
52769;DHT22;40471;44.534;18.644;2023-05-27T18:45:16;20.20;99.90
52769;DHT22;40471;44.534;18.644;2023-05-27T18:47:42;20.20;99.90
52769;DHT22;40471;44.534;18.644;2023-05-27T18:50:08;20.30;99.90
52769;DHT22;40471;44.534;18.644;2023-05-27T18:52:35;20.30;99.90
52769;DHT22;40471;44.534;18.644;2023-05-27T18:55:01;20.30;99.90
52769;DHT22;40471;44.534;18.644;2023-05-27T18:57:27;20.40;99.90
52769;DHT22;40471;44.534;18.644;2023-05-27T18:59:53;20.40;99.90
52769;DHT22;40471;44.534;18.644;2023-05-27T19:02:20;20.40;99.90
52769;DHT22;40471;44.534;18.644;2023-05-27T19:04:46;20.40;99.90
52769;DHT22;40471;44.534;18.644;2023-05-27T19:07:16;20.30;99.90
52769;DHT22;40471;44.534;18.644;2023-05-27T19:09:42;20.10;99.90
52769;DHT22;40471;44.534;18.644;2023-05-27T19:12:08;19.80;99.90
52769;DHT22;40471;44.534;18.644;2023-05-27T19:14:34;19.30;99.90
52769;DHT22;40471;44.534;18.644;2023-05-27T19:17:01;18.90;99.90
52769;DHT22;40471;44.534;18.644;2023-05-27T19:19:27;18.70;99.90
52769;DHT22;40471;44.534;18.644;2023-05-27T19:21:52;18.60;99.90
52769;DHT22;40471;44.534;18.644;2023-05-27T19:24:19;18.70;99.90